createdAt,value
2019-02-25T00:00:00.558Z,9.90
2019-02-25T00:00:51.806Z,10.93
2019-02-25T00:01:29.730Z,10.80
2019-02-25T00:02:08.151Z,10.08
2019-02-25T00:02:40.782Z,10.10
2019-02-25T00:03:13.269Z,11.40
2019-02-25T00:03:46.142Z,9.68
2019-02-25T00:04:18.621Z,10.98
2019-02-25T00:04:51.078Z,10.30
2019-02-25T00:05:23.839Z,10.45
2019-02-25T00:05:56.645Z,11.20
2019-02-25T00:06:29.058Z,10.05
2019-02-25T00:07:01.514Z,10.28
2019-02-25T00:07:34.277Z,9.38
2019-02-25T00:08:07.582Z,10.85
2019-02-25T00:08:40.143Z,11.15
2019-02-25T00:09:12.966Z,10.50
2019-02-25T00:09:45.919Z,11.12
2019-02-25T00:10:18.384Z,11.03
2019-02-25T00:10:51.140Z,10.48
2019-02-25T00:11:24.416Z,10.43
2019-02-25T00:11:57.261Z,10.35
2019-02-25T00:12:29.753Z,9.95
2019-02-25T00:13:02.235Z,9.55
2019-02-25T00:13:34.751Z,10.82
2019-02-25T00:14:07.525Z,10.28
2019-02-25T00:14:40.017Z,9.63
2019-02-25T00:15:12.495Z,10.85
2019-02-25T00:15:45.250Z,9.85
2019-02-25T00:16:17.714Z,11.10
2019-02-25T00:16:50.173Z,10.60
2019-02-25T00:17:22.678Z,11.50
2019-02-25T00:17:55.587Z,10.80
2019-02-25T00:18:28.395Z,12.10
2019-02-25T00:19:00.855Z,10.28
2019-02-25T00:19:33.329Z,11.00
2019-02-25T00:20:08.863Z,11.20
2019-02-25T00:20:41.335Z,9.98
2019-02-25T00:21:13.791Z,10.90
2019-02-25T00:21:46.251Z,12.58
2019-02-25T00:22:18.712Z,11.00
2019-02-25T00:22:51.845Z,11.40
2019-02-25T00:23:25.396Z,11.68
2019-02-25T00:23:58.134Z,12.28
2019-02-25T00:24:30.884Z,11.80
2019-02-25T00:25:03.733Z,11.28
2019-02-25T00:25:36.223Z,10.90
2019-02-25T00:26:08.703Z,11.60
2019-02-25T00:26:41.488Z,11.40
2019-02-25T00:27:13.946Z,11.55
2019-02-25T00:27:46.423Z,11.73
2019-02-25T00:28:19.270Z,10.08
2019-02-25T00:28:52.363Z,12.75
2019-02-25T00:29:25.109Z,11.53
2019-02-25T00:29:57.938Z,11.55
2019-02-25T00:30:30.405Z,11.00
2019-02-25T00:31:02.941Z,11.60
2019-02-25T00:31:35.784Z,10.18
2019-02-25T00:32:08.237Z,10.30
2019-02-25T00:32:41.421Z,12.05
2019-02-25T00:33:13.895Z,11.38
2019-02-25T00:33:46.346Z,11.75
2019-02-25T00:34:18.797Z,10.88
2019-02-25T00:34:51.563Z,11.55
2019-02-25T00:35:24.017Z,11.38
2019-02-25T00:35:56.498Z,11.88
2019-02-25T00:36:28.988Z,11.40
2019-02-25T00:37:01.446Z,12.80
2019-02-25T00:37:33.907Z,12.05
2019-02-25T00:38:06.748Z,13.48
2019-02-25T00:38:39.505Z,13.03
2019-02-25T00:39:11.972Z,14.80
2019-02-25T00:39:44.758Z,14.70
2019-02-25T00:40:17.230Z,16.82
2019-02-25T00:40:50.021Z,15.18
2019-02-25T00:41:22.486Z,14.33
2019-02-25T00:41:55.298Z,13.25
2019-02-25T00:42:27.776Z,13.18
2019-02-25T00:43:00.995Z,12.80
2019-02-25T00:43:34.384Z,13.08
2019-02-25T00:44:06.851Z,12.63
2019-02-25T00:44:39.585Z,12.47
2019-02-25T00:45:12.426Z,12.60
2019-02-25T00:45:44.884Z,12.90
2019-02-25T00:46:17.337Z,11.80
2019-02-25T00:46:49.807Z,12.33
2019-02-25T00:47:22.290Z,11.80
2019-02-25T00:47:55.130Z,11.57
2019-02-25T00:48:27.593Z,12.40
2019-02-25T00:49:00.421Z,12.63
2019-02-25T00:49:33.237Z,12.70
2019-02-25T00:50:08.066Z,13.10
2019-02-25T00:50:40.544Z,13.68
2019-02-25T00:51:13.014Z,13.30
2019-02-25T00:51:45.829Z,13.90
2019-02-25T00:52:18.590Z,13.08
2019-02-25T00:52:51.382Z,12.73
2019-02-25T00:53:24.201Z,13.08
2019-02-25T00:53:56.668Z,12.73
2019-02-25T00:54:29.151Z,12.93
2019-02-25T00:55:01.616Z,11.83
2019-02-25T00:55:34.082Z,12.37
2019-02-25T00:56:06.551Z,11.15
2019-02-25T00:56:39.016Z,13.83
2019-02-25T00:57:12.119Z,13.80
2019-02-25T00:57:44.589Z,12.88
2019-02-25T00:58:17.394Z,13.30
2019-02-25T00:58:50.214Z,12.88
2019-02-25T00:59:22.700Z,13.58
2019-02-25T00:59:55.926Z,14.38
2019-02-25T01:00:28.490Z,15.50
2019-02-25T01:01:00.964Z,13.70
2019-02-25T01:01:33.452Z,14.33
2019-02-25T01:02:05.919Z,13.72
2019-02-25T01:02:38.392Z,12.88
2019-02-25T01:03:10.977Z,13.53
2019-02-25T01:03:43.762Z,14.65
2019-02-25T01:04:16.530Z,13.03
2019-02-25T01:04:49.284Z,14.10
2019-02-25T01:05:21.740Z,12.53
2019-02-25T01:05:54.219Z,12.75
2019-02-25T01:06:26.677Z,12.37
2019-02-25T01:06:59.127Z,13.18
2019-02-25T01:07:31.577Z,11.90
2019-02-25T01:08:04.066Z,12.25
2019-02-25T01:08:36.814Z,11.63
2019-02-25T01:09:09.315Z,11.18
2019-02-25T01:09:41.780Z,12.35
2019-02-25T01:10:15.346Z,12.47
2019-02-25T01:10:47.806Z,11.90
2019-02-25T01:11:20.559Z,10.38
2019-02-25T01:11:53.402Z,12.95
2019-02-25T01:12:26.637Z,12.28
2019-02-25T01:12:59.520Z,11.50
2019-02-25T01:13:31.991Z,11.97
2019-02-25T01:14:04.668Z,13.38
2019-02-25T01:14:37.491Z,11.45
2019-02-25T01:15:09.979Z,10.00
2019-02-25T01:15:42.448Z,12.00
2019-02-25T01:16:14.911Z,11.08
2019-02-25T01:16:47.372Z,11.50
2019-02-25T01:17:20.185Z,12.18
2019-02-25T01:17:53.160Z,11.35
2019-02-25T01:18:25.618Z,11.18
2019-02-25T01:18:58.084Z,11.38
2019-02-25T01:19:30.533Z,11.45
2019-02-25T01:20:03.181Z,12.13
2019-02-25T01:20:35.641Z,11.00
2019-02-25T01:21:08.457Z,10.85
2019-02-25T01:21:40.911Z,11.55
2019-02-25T01:22:13.755Z,10.85
2019-02-25T01:22:46.232Z,12.20
2019-02-25T01:23:18.673Z,10.78
2019-02-25T01:23:51.260Z,10.55
2019-02-25T01:24:23.728Z,10.60
2019-02-25T01:24:56.499Z,11.00
2019-02-25T01:25:28.999Z,12.23
2019-02-25T01:26:01.454Z,11.40
2019-02-25T01:26:33.909Z,11.28
2019-02-25T01:27:06.742Z,11.22
2019-02-25T01:27:39.215Z,10.20
2019-02-25T01:28:11.667Z,11.93
2019-02-25T01:28:44.892Z,12.10
2019-02-25T01:29:17.727Z,11.12
2019-02-25T01:29:50.501Z,11.30
2019-02-25T01:30:23.403Z,10.35
2019-02-25T01:30:55.883Z,11.93
2019-02-25T01:31:28.691Z,12.05
2019-02-25T01:32:01.163Z,11.70
2019-02-25T01:32:33.622Z,10.95
2019-02-25T01:33:06.087Z,11.53
2019-02-25T01:33:38.541Z,11.38
2019-02-25T01:34:11.010Z,11.50
2019-02-25T01:34:43.775Z,12.95
2019-02-25T01:35:16.522Z,11.88
2019-02-25T01:35:49.290Z,11.97
2019-02-25T01:36:21.781Z,12.95
2019-02-25T01:36:54.247Z,11.78
2019-02-25T01:37:27.092Z,11.68
2019-02-25T01:37:59.562Z,11.60
2019-02-25T01:38:32.022Z,10.85
2019-02-25T01:39:05.656Z,11.97
2019-02-25T01:39:38.119Z,12.18
2019-02-25T01:40:10.930Z,11.73
2019-02-25T01:40:43.369Z,12.28
2019-02-25T01:41:15.843Z,12.10
2019-02-25T01:41:48.326Z,11.68
2019-02-25T01:42:21.791Z,10.48
2019-02-25T01:42:54.630Z,12.40
2019-02-25T01:43:27.078Z,12.15
2019-02-25T01:43:59.954Z,12.58
2019-02-25T01:44:33.326Z,12.50
2019-02-25T01:45:07.765Z,11.68
2019-02-25T01:45:40.236Z,12.50
2019-02-25T01:46:13.540Z,12.53
2019-02-25T01:46:45.985Z,11.20
2019-02-25T01:47:18.474Z,12.55
2019-02-25T01:47:51.210Z,12.68
2019-02-25T01:48:23.677Z,11.35
2019-02-25T01:48:56.134Z,12.10
2019-02-25T01:49:28.604Z,12.25
2019-02-25T01:50:01.062Z,13.10
2019-02-25T01:50:33.524Z,11.93
2019-02-25T01:51:06.721Z,12.28
2019-02-25T01:51:39.179Z,11.18
2019-02-25T01:52:11.655Z,11.70
2019-02-25T01:52:44.741Z,11.20
2019-02-25T01:53:17.214Z,13.48
2019-02-25T01:53:49.679Z,12.35
2019-02-25T01:54:22.154Z,11.85
2019-02-25T01:54:54.935Z,11.85
2019-02-25T01:56:00.722Z,12.00
2019-02-25T01:56:33.205Z,11.30
2019-02-25T01:57:05.682Z,11.73
2019-02-25T01:57:38.436Z,11.85
2019-02-25T01:58:10.948Z,12.25
2019-02-25T01:58:43.407Z,12.00
2019-02-25T01:59:15.880Z,12.07
2019-02-25T01:59:48.347Z,12.35
2019-02-25T02:00:20.841Z,12.37
2019-02-25T02:00:53.307Z,11.53
2019-02-25T02:01:26.231Z,11.28
2019-02-25T02:01:58.705Z,11.10
2019-02-25T02:02:31.184Z,10.15
2019-02-25T02:03:03.663Z,12.70
2019-02-25T02:03:36.167Z,11.55
2019-02-25T02:04:09.121Z,12.23
2019-02-25T02:04:41.906Z,12.15
2019-02-25T02:05:14.383Z,10.20
2019-02-25T02:05:46.864Z,12.50
2019-02-25T02:06:19.343Z,12.30
2019-02-25T02:06:52.098Z,11.40
2019-02-25T02:07:24.611Z,11.45
2019-02-25T02:07:57.495Z,11.93
2019-02-25T02:08:29.960Z,11.93
2019-02-25T02:09:02.677Z,10.80
2019-02-25T02:09:35.838Z,11.80
2019-02-25T02:10:09.857Z,11.60
2019-02-25T02:10:42.661Z,13.10
2019-02-25T02:11:15.129Z,11.63
2019-02-25T02:11:47.616Z,11.45
2019-02-25T02:12:20.399Z,11.30
2019-02-25T02:12:52.866Z,11.43
2019-02-25T02:13:25.345Z,11.95
2019-02-25T02:13:58.200Z,12.20
2019-02-25T02:14:30.703Z,13.15
2019-02-25T02:15:04.679Z,11.53
2019-02-25T02:15:37.160Z,11.95
2019-02-25T02:16:09.995Z,11.18
2019-02-25T02:16:42.472Z,12.00
2019-02-25T02:17:15.327Z,11.55
2019-02-25T02:17:47.805Z,10.75
2019-02-25T02:18:21.242Z,13.15
2019-02-25T02:18:54.492Z,13.30
2019-02-25T02:19:26.976Z,11.50
2019-02-25T02:19:59.477Z,12.90
2019-02-25T02:20:31.941Z,11.63
2019-02-25T02:21:04.413Z,11.40
2019-02-25T02:21:36.879Z,12.10
2019-02-25T02:22:09.740Z,12.20
2019-02-25T02:22:42.574Z,12.23
2019-02-25T02:23:15.045Z,12.70
2019-02-25T02:23:47.605Z,12.40
2019-02-25T02:24:20.087Z,12.15
2019-02-25T02:24:53.347Z,12.73
2019-02-25T02:25:26.523Z,11.95
2019-02-25T02:25:58.982Z,12.35
2019-02-25T02:26:31.464Z,11.30
2019-02-25T02:27:04.271Z,12.70
2019-02-25T02:27:36.745Z,11.97
2019-02-25T02:28:09.194Z,12.00
2019-02-25T02:28:41.684Z,11.70
2019-02-25T02:29:14.152Z,12.58
2019-02-25T02:29:46.636Z,10.98
2019-02-25T02:30:19.499Z,12.15
2019-02-25T02:30:52.388Z,12.47
2019-02-25T02:31:25.225Z,12.90
2019-02-25T02:31:57.686Z,12.35
2019-02-25T02:32:30.448Z,11.95
2019-02-25T02:33:03.571Z,11.45
2019-02-25T02:33:36.044Z,12.20
2019-02-25T02:34:08.897Z,13.05
2019-02-25T02:34:41.366Z,11.18
2019-02-25T02:35:13.854Z,11.30
2019-02-25T02:35:46.991Z,12.78
2019-02-25T02:36:19.762Z,12.80
2019-02-25T02:36:52.371Z,11.33
2019-02-25T02:37:25.224Z,12.43
2019-02-25T02:37:58.046Z,11.95
2019-02-25T02:38:30.505Z,12.15
2019-02-25T02:39:04.274Z,11.18
2019-02-25T02:39:36.742Z,10.75
2019-02-25T02:40:09.355Z,12.23
2019-02-25T02:40:42.482Z,11.63
2019-02-25T02:41:15.302Z,11.48
2019-02-25T02:42:16.025Z,12.15
2019-02-25T02:42:50.815Z,11.05
2019-02-25T02:43:23.288Z,10.48
2019-02-25T02:43:55.767Z,11.53
2019-02-25T02:44:28.256Z,12.03
2019-02-25T02:45:26.970Z,12.73
2019-02-25T02:46:24.505Z,11.10
2019-02-25T02:47:25.639Z,11.60
2019-02-25T02:48:04.566Z,12.45
2019-02-25T02:48:44.166Z,12.07
2019-02-25T02:49:17.058Z,11.93
2019-02-25T02:49:49.543Z,10.95
2019-02-25T02:50:23.635Z,10.82
2019-02-25T02:50:56.469Z,11.80
2019-02-25T02:51:29.055Z,12.05
2019-02-25T02:52:01.530Z,11.97
2019-02-25T02:52:34.031Z,11.88
2019-02-25T02:53:06.842Z,11.40
2019-02-25T02:53:39.911Z,11.50
2019-02-25T02:54:12.395Z,11.63
2019-02-25T02:54:44.866Z,11.88
2019-02-25T02:55:17.709Z,12.00
2019-02-25T02:55:50.187Z,11.78
2019-02-25T02:56:22.661Z,12.93
2019-02-25T02:56:55.714Z,12.13
2019-02-25T02:57:28.178Z,11.22
2019-02-25T02:58:00.671Z,12.50
2019-02-25T02:58:33.618Z,12.58
2019-02-25T02:59:06.364Z,11.97
2019-02-25T02:59:39.192Z,11.55
2019-02-25T03:00:14.291Z,11.83
2019-02-25T03:00:46.751Z,12.20
2019-02-25T03:01:19.241Z,12.33
2019-02-25T03:01:52.190Z,12.35
2019-02-25T03:02:24.668Z,10.95
2019-02-25T03:02:57.853Z,11.83
2019-02-25T03:03:30.351Z,10.98
2019-02-25T03:04:03.229Z,12.05
2019-02-25T03:04:35.681Z,12.00
2019-02-25T03:05:10.526Z,11.57
2019-02-25T03:05:42.990Z,12.07
2019-02-25T03:06:15.459Z,12.47
2019-02-25T03:06:47.927Z,12.00
2019-02-25T03:07:20.844Z,12.00
2019-02-25T03:07:53.617Z,12.65
2019-02-25T03:08:26.398Z,11.70
2019-02-25T03:08:58.949Z,11.10
2019-02-25T03:09:31.440Z,11.57
2019-02-25T03:10:05.410Z,11.68
2019-02-25T03:10:37.883Z,12.93
2019-02-25T03:11:10.365Z,11.43
2019-02-25T03:11:42.818Z,12.18
2019-02-25T03:12:15.283Z,11.40
2019-02-25T03:12:47.760Z,12.93
2019-02-25T03:13:20.346Z,12.13
2019-02-25T03:13:53.153Z,11.68
2019-02-25T03:14:25.670Z,11.90
2019-02-25T03:14:58.488Z,11.28
2019-02-25T03:15:31.496Z,11.70
2019-02-25T03:16:03.978Z,11.83
2019-02-25T03:16:37.150Z,12.20
2019-02-25T03:17:09.615Z,11.83
2019-02-25T03:17:42.726Z,12.82
2019-02-25T03:18:15.332Z,12.07
2019-02-25T03:18:47.808Z,13.22
2019-02-25T03:19:20.402Z,12.23
2019-02-25T03:19:52.916Z,10.58
2019-02-25T03:20:25.704Z,12.53
2019-02-25T03:20:58.456Z,12.00
2019-02-25T03:21:30.923Z,12.78
2019-02-25T03:22:03.408Z,12.80
2019-02-25T03:22:35.899Z,11.53
2019-02-25T03:23:08.369Z,12.60
2019-02-25T03:23:40.915Z,11.08
2019-02-25T03:24:13.331Z,12.63
2019-02-25T03:24:45.812Z,13.40
2019-02-25T03:25:18.978Z,11.25
2019-02-25T03:25:51.446Z,11.60
2019-02-25T03:26:24.559Z,10.78
2019-02-25T03:26:57.317Z,13.50
2019-02-25T03:27:30.112Z,13.25
2019-02-25T03:28:03.219Z,12.13
2019-02-25T03:28:36.096Z,11.33
2019-02-25T03:29:08.902Z,11.75
2019-02-25T03:29:41.365Z,12.15
2019-02-25T03:30:18.964Z,12.55
2019-02-25T03:30:51.462Z,10.90
2019-02-25T03:31:24.211Z,12.30
2019-02-25T03:31:56.700Z,11.33
2019-02-25T03:32:29.150Z,12.58
2019-02-25T03:33:01.629Z,12.82
2019-02-25T03:33:34.108Z,12.35
2019-02-25T03:34:06.580Z,12.28
2019-02-25T03:34:39.034Z,11.45
2019-02-25T03:35:11.880Z,12.00
2019-02-25T03:35:44.357Z,10.80
2019-02-25T03:36:16.855Z,11.60
2019-02-25T03:36:49.332Z,14.20
2019-02-25T03:37:21.786Z,11.80
2019-02-25T03:37:54.525Z,12.03
2019-02-25T03:38:33.524Z,13.48
2019-02-25T03:39:06.451Z,11.30
2019-02-25T03:39:38.908Z,12.28
2019-02-25T03:40:13.989Z,12.28
2019-02-25T03:40:46.917Z,12.50
2019-02-25T03:41:19.334Z,13.20
2019-02-25T03:41:51.849Z,11.75
2019-02-25T03:42:24.293Z,11.53
2019-02-25T03:42:56.766Z,12.33
2019-02-25T03:43:29.256Z,11.65
2019-02-25T03:44:01.723Z,12.40
2019-02-25T03:44:34.189Z,11.55
2019-02-25T03:45:08.098Z,11.95
2019-02-25T03:45:40.987Z,12.90
2019-02-25T03:46:14.413Z,13.18
2019-02-25T03:46:47.215Z,12.20
2019-02-25T03:47:20.474Z,12.40
2019-02-25T03:47:53.026Z,12.60
2019-02-25T03:48:25.524Z,12.82
2019-02-25T03:48:58.376Z,11.10
2019-02-25T03:49:30.826Z,12.80
2019-02-25T03:50:03.540Z,11.85
2019-02-25T03:50:36.401Z,12.07
2019-02-25T03:51:08.862Z,12.30
2019-02-25T03:51:41.822Z,12.10
2019-02-25T03:52:14.752Z,11.50
2019-02-25T03:52:47.254Z,13.32
2019-02-25T03:53:19.719Z,12.33
2019-02-25T03:53:52.475Z,12.18
2019-02-25T03:54:25.213Z,13.28
2019-02-25T03:54:57.685Z,12.40
2019-02-25T03:55:30.480Z,11.55
2019-02-25T03:56:03.406Z,12.58
2019-02-25T03:56:35.881Z,12.25
2019-02-25T03:57:08.344Z,12.13
2019-02-25T03:57:41.140Z,13.43
2019-02-25T03:58:14.310Z,12.47
2019-02-25T03:58:46.898Z,11.15
2019-02-25T03:59:19.358Z,12.45
2019-02-25T03:59:51.825Z,12.47
2019-02-25T04:00:24.310Z,13.13
2019-02-25T04:00:57.123Z,13.90
2019-02-25T04:01:29.595Z,12.25
2019-02-25T04:02:02.353Z,12.10
2019-02-25T04:02:35.137Z,12.95
2019-02-25T04:03:07.974Z,13.22
2019-02-25T04:03:40.471Z,13.10
2019-02-25T04:04:13.212Z,13.45
2019-02-25T04:04:47.490Z,12.95
2019-02-25T04:05:19.975Z,13.43
2019-02-25T04:05:52.867Z,14.35
2019-02-25T04:06:26.038Z,12.88
2019-02-25T04:06:58.515Z,12.28
2019-02-25T04:07:30.997Z,12.25
2019-02-25T04:08:03.828Z,12.75
2019-02-25T04:08:36.308Z,12.60
2019-02-25T04:09:08.820Z,13.43
2019-02-25T04:09:41.584Z,12.50
2019-02-25T04:10:14.414Z,12.82
2019-02-25T04:10:46.843Z,11.63
2019-02-25T04:11:19.322Z,12.82
2019-02-25T04:11:51.786Z,12.73
2019-02-25T04:12:24.287Z,14.23
2019-02-25T04:12:56.768Z,12.45
2019-02-25T04:13:29.235Z,12.07
2019-02-25T04:14:01.755Z,14.78
2019-02-25T04:14:35.099Z,12.05
2019-02-25T04:15:10.340Z,12.35
2019-02-25T04:15:44.271Z,13.28
2019-02-25T04:16:16.761Z,11.93
2019-02-25T04:16:49.250Z,11.95
2019-02-25T04:17:22.112Z,11.45
2019-02-25T04:17:55.186Z,13.35
2019-02-25T04:18:28.015Z,13.25
2019-02-25T04:19:00.479Z,12.68
2019-02-25T04:19:33.300Z,12.85
2019-02-25T04:20:07.448Z,12.90
2019-02-25T04:20:40.361Z,12.75
2019-02-25T04:21:12.831Z,12.65
2019-02-25T04:21:45.306Z,12.28
2019-02-25T04:22:18.161Z,13.50
2019-02-25T04:22:50.907Z,12.60
2019-02-25T04:23:23.689Z,13.53
2019-02-25T04:23:56.461Z,11.48
2019-02-25T04:24:28.939Z,12.47
2019-02-25T04:25:01.412Z,14.43
2019-02-25T04:25:33.902Z,13.20
2019-02-25T04:26:06.374Z,12.82
2019-02-25T04:26:38.842Z,13.30
2019-02-25T04:27:11.334Z,13.80
2019-02-25T04:27:43.796Z,12.35
2019-02-25T04:28:16.263Z,13.15
2019-02-25T04:28:49.124Z,11.18
2019-02-25T04:29:21.578Z,12.55
2019-02-25T04:29:55.269Z,13.15
2019-02-25T04:30:28.574Z,12.58
2019-02-25T04:31:01.625Z,12.37
2019-02-25T04:31:34.093Z,13.65
2019-02-25T04:32:06.601Z,12.40
2019-02-25T04:32:39.427Z,12.28
2019-02-25T04:33:11.896Z,11.60
2019-02-25T04:33:44.378Z,12.28
2019-02-25T04:34:17.625Z,13.00
2019-02-25T04:34:50.694Z,12.65
2019-02-25T04:35:23.171Z,12.40
2019-02-25T04:35:55.667Z,14.00
2019-02-25T04:36:28.487Z,12.85
2019-02-25T04:37:01.682Z,13.38
2019-02-25T04:37:34.172Z,13.38
2019-02-25T04:38:07.304Z,11.83
2019-02-25T04:38:39.771Z,13.43
2019-02-25T04:39:12.635Z,13.28
2019-02-25T04:39:45.447Z,12.98
2019-02-25T04:40:17.923Z,12.33
2019-02-25T04:40:50.381Z,11.57
2019-02-25T04:41:22.856Z,12.90
2019-02-25T04:41:55.769Z,12.00
2019-02-25T04:42:28.250Z,12.33
2019-02-25T04:43:01.092Z,12.45
2019-02-25T04:43:33.560Z,13.70
2019-02-25T04:44:06.384Z,12.30
2019-02-25T04:44:38.982Z,12.85
2019-02-25T04:45:13.337Z,12.50
2019-02-25T04:45:46.151Z,11.50
2019-02-25T04:46:18.956Z,12.63
2019-02-25T04:46:51.468Z,12.25
2019-02-25T04:47:24.753Z,12.15
2019-02-25T04:47:57.241Z,12.78
2019-02-25T04:48:29.732Z,13.40
2019-02-25T04:49:02.212Z,12.65
2019-02-25T04:49:35.128Z,13.28
2019-02-25T04:50:08.423Z,12.03
2019-02-25T04:50:41.232Z,14.47
2019-02-25T04:51:13.717Z,12.88
2019-02-25T04:51:46.503Z,12.55
2019-02-25T04:52:19.376Z,12.80
2019-02-25T04:52:51.866Z,12.70
2019-02-25T04:53:24.345Z,12.90
2019-02-25T04:53:56.829Z,12.28
2019-02-25T04:54:30.026Z,13.60
2019-02-25T04:55:02.801Z,12.70
2019-02-25T04:55:35.575Z,12.28
2019-02-25T04:56:08.455Z,12.53
2019-02-25T04:56:41.523Z,12.33
2019-02-25T04:57:14.386Z,12.78
2019-02-25T04:57:46.888Z,12.60
2019-02-25T04:58:19.388Z,12.30
2019-02-25T04:58:51.858Z,12.93
2019-02-25T04:59:24.326Z,12.33
2019-02-25T04:59:56.821Z,12.45
2019-02-25T05:00:29.278Z,11.80
2019-02-25T05:01:01.775Z,13.38
2019-02-25T05:01:34.239Z,13.28
2019-02-25T05:02:07.362Z,11.20
2019-02-25T05:02:39.818Z,13.18
2019-02-25T05:03:12.277Z,13.32
2019-02-25T05:03:44.784Z,12.60
2019-02-25T05:04:17.265Z,12.75
2019-02-25T05:04:50.065Z,13.30
2019-02-25T05:05:22.539Z,13.08
2019-02-25T05:05:55.011Z,12.88
2019-02-25T05:06:27.478Z,13.40
2019-02-25T05:07:00.275Z,13.48
2019-02-25T05:07:32.742Z,13.20
2019-02-25T05:08:05.220Z,12.58
2019-02-25T05:08:38.081Z,13.88
2019-02-25T05:09:10.865Z,13.20
2019-02-25T05:09:43.703Z,12.58
2019-02-25T05:10:16.191Z,12.25
2019-02-25T05:10:48.686Z,13.20
2019-02-25T05:11:23.123Z,14.05
2019-02-25T05:11:55.594Z,12.75
2019-02-25T05:12:28.079Z,12.30
2019-02-25T05:13:04.549Z,13.45
2019-02-25T05:13:37.023Z,13.00
2019-02-25T05:14:09.489Z,14.35
2019-02-25T05:14:42.001Z,12.82
2019-02-25T05:15:15.811Z,12.58
2019-02-25T05:15:48.600Z,13.18
2019-02-25T05:16:21.491Z,12.65
2019-02-25T05:16:54.256Z,13.28
2019-02-25T05:17:26.743Z,12.47
2019-02-25T05:17:59.682Z,13.48
2019-02-25T05:18:32.146Z,11.75
2019-02-25T05:19:04.628Z,13.25
2019-02-25T05:19:37.103Z,12.90
2019-02-25T05:20:09.615Z,13.25
2019-02-25T05:20:42.081Z,13.18
2019-02-25T05:21:15.263Z,12.95
2019-02-25T05:21:48.540Z,14.25
2019-02-25T05:22:21.001Z,14.18
2019-02-25T05:22:53.488Z,12.68
2019-02-25T05:23:26.233Z,13.18
2019-02-25T05:23:58.706Z,12.80
2019-02-25T05:24:31.561Z,13.70
2019-02-25T05:25:05.895Z,14.30
2019-02-25T05:25:39.136Z,12.82
2019-02-25T05:26:11.912Z,13.72
2019-02-25T05:26:44.744Z,13.15
2019-02-25T05:27:17.229Z,13.13
2019-02-25T05:27:49.721Z,13.30
2019-02-25T05:28:22.211Z,13.68
2019-02-25T05:28:54.701Z,13.22
2019-02-25T05:29:27.741Z,14.05
2019-02-25T05:30:00.364Z,13.98
2019-02-25T05:30:32.812Z,13.35
2019-02-25T05:31:05.686Z,12.45
2019-02-25T05:31:38.173Z,12.90
2019-02-25T05:32:10.660Z,13.35
2019-02-25T05:32:43.481Z,13.80
2019-02-25T05:33:15.955Z,12.80
2019-02-25T05:33:48.708Z,13.80
2019-02-25T05:34:21.557Z,14.25
2019-02-25T05:34:54.034Z,13.00
2019-02-25T05:35:26.511Z,12.13
2019-02-25T05:35:58.979Z,14.43
2019-02-25T05:36:31.495Z,12.65
2019-02-25T05:37:04.355Z,14.13
2019-02-25T05:37:36.856Z,12.20
2019-02-25T05:38:09.770Z,14.23
2019-02-25T05:38:42.242Z,13.90
2019-02-25T05:39:14.731Z,13.15
2019-02-25T05:39:47.198Z,14.63
2019-02-25T05:40:19.703Z,12.63
2019-02-25T05:40:52.576Z,13.00
2019-02-25T05:41:25.430Z,13.40
2019-02-25T05:41:57.914Z,13.05
2019-02-25T05:42:30.757Z,14.05
2019-02-25T05:43:03.691Z,13.80
2019-02-25T05:43:36.161Z,12.55
2019-02-25T05:44:08.702Z,13.58
2019-02-25T05:44:41.928Z,12.45
2019-02-25T05:45:14.612Z,13.15
2019-02-25T05:45:47.391Z,13.40
2019-02-25T05:46:20.233Z,13.93
2019-02-25T05:46:53.077Z,13.35
2019-02-25T05:47:25.976Z,12.47
2019-02-25T05:47:58.717Z,13.80
2019-02-25T05:48:31.190Z,12.78
2019-02-25T05:49:03.975Z,14.23
2019-02-25T05:49:36.447Z,12.30
2019-02-25T05:50:11.274Z,13.58
2019-02-25T05:50:43.735Z,13.15
2019-02-25T05:51:16.572Z,12.73
2019-02-25T05:51:49.044Z,13.98
2019-02-25T05:52:21.528Z,13.38
2019-02-25T05:52:54.021Z,13.40
2019-02-25T05:53:26.519Z,13.62
2019-02-25T05:53:58.992Z,13.35
2019-02-25T05:54:31.458Z,12.55
2019-02-25T05:55:05.336Z,13.38
2019-02-25T05:55:37.832Z,13.22
2019-02-25T05:56:10.297Z,13.28
2019-02-25T05:56:43.714Z,14.87
2019-02-25T05:57:16.727Z,13.85
2019-02-25T05:57:49.305Z,13.30
2019-02-25T05:58:22.206Z,12.78
2019-02-25T05:58:54.686Z,13.50
2019-02-25T05:59:27.474Z,13.95
2019-02-25T05:59:59.962Z,14.33
2019-02-25T06:00:32.658Z,13.30
2019-02-25T06:01:05.130Z,12.70
2019-02-25T06:01:37.609Z,13.83
2019-02-25T06:02:10.398Z,13.40
2019-02-25T06:02:42.883Z,13.62
2019-02-25T06:03:15.363Z,13.65
2019-02-25T06:03:48.215Z,14.10
2019-02-25T06:04:21.024Z,14.00
2019-02-25T06:04:53.521Z,13.50
2019-02-25T06:05:26.319Z,14.55
2019-02-25T06:05:58.805Z,13.93
2019-02-25T06:06:32.030Z,13.72
2019-02-25T06:07:04.905Z,13.25
2019-02-25T06:07:37.410Z,14.18
2019-02-25T06:08:10.940Z,15.10
2019-02-25T06:08:43.416Z,13.10
2019-02-25T06:09:16.299Z,14.55
2019-02-25T06:09:49.116Z,14.23
2019-02-25T06:10:21.593Z,13.20
2019-02-25T06:10:54.080Z,14.33
2019-02-25T06:11:26.545Z,13.62
2019-02-25T06:11:59.018Z,14.28
2019-02-25T06:12:31.859Z,14.75
2019-02-25T06:13:04.345Z,13.60
2019-02-25T06:13:36.860Z,14.45
2019-02-25T06:14:09.283Z,13.15
2019-02-25T06:14:41.776Z,13.68
2019-02-25T06:15:14.312Z,14.95
2019-02-25T06:15:46.918Z,14.87
2019-02-25T06:16:20.117Z,13.90
2019-02-25T06:16:52.982Z,15.50
2019-02-25T06:17:25.455Z,15.85
2019-02-25T06:17:57.926Z,13.25
2019-02-25T06:18:30.404Z,14.95
2019-02-25T06:19:03.222Z,15.25
2019-02-25T06:19:35.998Z,13.55
2019-02-25T06:20:09.635Z,14.90
2019-02-25T06:20:42.472Z,15.18
2019-02-25T06:21:15.330Z,13.72
2019-02-25T06:21:47.803Z,14.40
2019-02-25T06:22:20.275Z,14.15
2019-02-25T06:22:53.126Z,13.65
2019-02-25T06:23:25.884Z,15.18
2019-02-25T06:23:58.362Z,13.40
2019-02-25T06:24:30.830Z,14.63
2019-02-25T06:25:04.025Z,14.50
2019-02-25T06:25:36.522Z,13.75
2019-02-25T06:26:09.069Z,13.93
2019-02-25T06:26:41.492Z,13.62
2019-02-25T06:27:13.975Z,13.60
2019-02-25T06:27:46.907Z,15.18
2019-02-25T06:28:20.092Z,13.70
2019-02-25T06:28:52.967Z,14.10
2019-02-25T06:29:25.444Z,13.62
2019-02-25T06:29:57.916Z,15.03
2019-02-25T06:30:30.397Z,13.35
2019-02-25T06:31:03.266Z,13.80
2019-02-25T06:31:36.041Z,13.15
2019-02-25T06:32:08.514Z,13.75
2019-02-25T06:32:41.524Z,14.45
2019-02-25T06:33:14.277Z,13.35
2019-02-25T06:33:47.580Z,14.68
2019-02-25T06:34:20.149Z,12.90
2019-02-25T06:34:53.368Z,14.15
2019-02-25T06:35:25.847Z,14.25
2019-02-25T06:35:58.326Z,13.00
2019-02-25T06:36:30.834Z,13.70
2019-02-25T06:37:03.323Z,13.38
2019-02-25T06:37:36.117Z,13.13
2019-02-25T06:38:08.599Z,13.45
2019-02-25T06:38:41.086Z,13.80
2019-02-25T06:39:13.574Z,13.53
2019-02-25T06:39:46.051Z,13.85
2019-02-25T06:40:18.532Z,14.03
2019-02-25T06:40:51.011Z,13.30
2019-02-25T06:41:23.856Z,14.28
2019-02-25T06:41:56.363Z,14.58
2019-02-25T06:42:28.855Z,14.65
2019-02-25T06:43:01.326Z,14.70
2019-02-25T06:43:34.166Z,15.15
2019-02-25T06:44:06.648Z,14.63
2019-02-25T06:44:39.874Z,13.35
2019-02-25T06:45:14.538Z,13.90
2019-02-25T06:45:47.337Z,15.78
2019-02-25T06:46:19.820Z,14.83
2019-02-25T06:46:52.295Z,14.00
2019-02-25T06:47:24.809Z,14.38
2019-02-25T06:47:57.278Z,15.05
2019-02-25T06:48:29.907Z,14.40
2019-02-25T06:49:02.392Z,13.25
2019-02-25T06:49:34.868Z,13.43
2019-02-25T06:50:08.363Z,14.13
2019-02-25T06:50:41.219Z,14.43
2019-02-25T06:51:13.979Z,13.18
2019-02-25T06:51:46.445Z,13.32
2019-02-25T06:52:20.091Z,14.13
2019-02-25T06:52:52.798Z,13.68
2019-02-25T06:53:25.565Z,13.88
2019-02-25T06:53:58.049Z,14.00
2019-02-25T06:54:30.898Z,13.10
2019-02-25T06:55:04.018Z,13.32
2019-02-25T06:55:37.227Z,13.78
2019-02-25T06:56:09.707Z,13.95
2019-02-25T06:56:42.453Z,13.35
2019-02-25T06:57:15.285Z,13.65
2019-02-25T06:57:48.208Z,14.38
2019-02-25T06:58:22.833Z,14.00
2019-02-25T06:58:55.336Z,13.15
2019-02-25T06:59:28.140Z,14.23
2019-02-25T07:00:00.756Z,14.35
2019-02-25T07:00:33.263Z,14.05
2019-02-25T07:01:05.755Z,13.30
2019-02-25T07:01:38.222Z,14.15
2019-02-25T07:02:11.812Z,13.90
2019-02-25T07:02:44.576Z,13.68
2019-02-25T07:03:17.452Z,13.60
2019-02-25T07:04:09.451Z,13.30
2019-02-25T07:04:59.439Z,14.20